This is the latest recevied weather packets stored in our database for station/object K7AZM. If no packets are shown the sender has not sent any weather packets the latest 10 day(s).
| Time | Temp. | Humidity | Pressure | Rain* | Wind** | Luminosity | Snow |
|---|---|---|---|---|---|---|---|
| 1777418722 | 28.33° C | 11% | 1014.2 hPa | 0 mm | - | - | - |
| 1777417523 | 28.33° C | 13% | 1014.5 hPa | 0 mm | - | - | - |
| 1777416623 | 27.78° C | 13% | 1014.6 hPa | 0 mm | - | - | - |
| 1777415723 | 28.33° C | 13% | 1014.8 hPa | 0 mm | - | - | - |
| 1777410322 | 27.22° C | 14% | 1016.3 hPa | 0 mm | - | - | - |
| 1777407922 | 26.67° C | 16% | 1016.6 hPa | 0 mm | - | - | - |
| 1777407622 | 26.67° C | 16% | 1016.7 hPa | 0 mm | - | - | - |
| 1777406722 | 26.67° C | 16% | 1017 hPa | 0 mm | - | - | - |
| 1777406422 | 27.22° C | 16% | 1017.1 hPa | 0 mm | - | - | - |
| 1777405522 | 26.11° C | 16% | 1017.2 hPa | 0 mm | - | - | - |
| 1777404322 | 26.11° C | 17% | 1017.4 hPa | 0 mm | - | - | - |
| 1777404022 | 26.11° C | 17% | 1017.5 hPa | 0 mm | - | - | - |
| 1777402522 | 25.56° C | 19% | 1017.8 hPa | 0 mm | - | - | - |
| 1777401322 | 25.56° C | 18% | 1018.1 hPa | 0 mm | - | - | - |
| 1777400422 | 25° C | 19% | 1018.1 hPa | 0 mm | - | - | - |
| 1777398922 | 24.44° C | 20% | 1018.4 hPa | 0 mm | - | - | - |
| 1777397122 | 23.89° C | 22% | 1018.6 hPa | 0 mm | - | - | - |
| 1777395923 | 23.33° C | 22% | 1018.6 hPa | 0 mm | - | - | - |
| 1777395622 | 23.33° C | 22% | 1018.7 hPa | 0 mm | - | - | - |
| 1777394722 | 23.33° C | 23% | 1018.8 hPa | 0 mm | - | - | - |
| 1777390522 | 21.11° C | 26% | 1018.6 hPa | 0 mm | - | - | - |
| 1777388722 | 20.56° C | 26% | 1018.5 hPa | 0 mm | - | - | - |
| 1777384822 | 14.44° C | 37% | 1017.4 hPa | 0 mm | - | - | - |
| 1777384224 | 13.33° C | 38% | 1017.3 hPa | 0 mm | - | - | - |
| 1777383321 | 12.78° C | 38% | 1017.2 hPa | 0 mm | - | - | - |
* Rain latest hour (hover to see other rain measurements)
** Current wind speed in m/s (hover to see current wind gust speed)